Time;durP1;ratioP1;P1;durP2;ratioP2;P2;SDS_P1;SDS_P2;PMS_P1;PMS_P2;Temp;Humidity;BMP_temperature;BMP_pressure;BME280_temperature;BME280_humidity;BME280_pressure;Samples;Min_cycle;Max_cycle;Signal;HPM_P1;HPM_P2
2023/03/18 00:00:39;;;;;;;;;;;;;;;1.71;72.29;95592.00;5117288;28;1028;-60
2023/03/18 00:03:05;;;;;;;;;;;;;;;1.35;72.52;95577.53;5117535;28;1004;-60
2023/03/18 00:05:33;;;;;;;;;;;;;;;1.33;73.73;95580.25;5116248;28;967;-60
2023/03/18 00:08:00;;;;;;;;;;;;;;;1.42;73.52;95576.19;5117135;28;1901;-60
2023/03/18 00:10:26;;;;;;;;;;;;;;;1.27;73.94;95575.34;5117130;28;1039;-60
2023/03/18 00:12:52;;;;;;;;;;;;;;;1.13;73.58;95570.06;5117302;27;1012;-60
2023/03/18 00:15:18;;;;;;;;;;;;;;;1.20;74.04;95571.41;5116891;28;1037;-60
2023/03/18 00:17:45;;;;;;;;;;;;;;;1.35;73.90;95565.19;5117255;28;1019;-60
2023/03/18 00:20:12;;;;;;;;;;;;;;;1.20;73.44;95560.03;5117177;28;989;-60
2023/03/18 00:22:39;;;;;;;;;;;;;;;1.07;73.44;95558.13;5116891;27;1052;-60
2023/03/18 00:25:06;;;;;;;;;;;;;;;1.10;73.34;95555.31;5116861;28;1037;-60
2023/03/18 00:27:33;;;;;;;;;;;;;;;0.85;74.26;95555.94;5116552;28;1906;-60
2023/03/18 00:29:59;;;;;;;;;;;;;;;0.91;74.60;95552.97;5116741;28;1044;-60
2023/03/18 00:32:26;;;;;;;;;;;;;;;1.02;74.12;95552.28;5116843;28;1035;-60
2023/03/18 00:34:53;;;;;;;;;;;;;;;0.97;74.10;95557.00;5111479;28;1256;-59
2023/03/18 00:37:29;;;;;;;;;;;;;;;1.05;74.25;95551.28;5096265;28;1115;-60
2023/03/18 00:39:56;;;;;;;;;;;;;;;0.96;74.39;95555.28;5096539;28;1051;-60
2023/03/18 00:42:22;;;;;;;;;;;;;;;0.82;74.56;95548.25;5096046;28;980;-60
2023/03/18 00:44:48;;;;;;;;;;;;;;;0.74;74.46;95546.06;5096340;28;1098;-60
2023/03/18 00:47:15;;;;;;;;;;;;;;;0.71;74.88;95543.59;5096088;28;1990;-60
2023/03/18 00:49:41;;;;;;;;;;;;;;;0.86;74.56;95541.84;5096338;28;965;-60
2023/03/18 00:52:07;;;;;;;;;;;;;;;0.91;73.99;95541.56;5096153;28;1032;-60
2023/03/18 00:54:34;;;;;;;;;;;;;;;0.77;74.35;95539.75;5095983;28;1134;-60
2023/03/18 00:57:00;;;;;;;;;;;;;;;0.75;74.34;95536.38;5095702;28;1032;-60
2023/03/18 00:59:26;;;;;;;;;;;;;;;0.72;74.22;95534.78;5095560;28;1056;-60
2023/03/18 01:01:52;;;;;;;;;;;;;;;0.64;74.58;95534.38;5095786;28;1025;-60
2023/03/18 01:04:20;;;;;;;;;;;;;;;0.75;74.44;95531.94;5095696;28;1045;-60
2023/03/18 01:06:46;;;;;;;;;;;;;;;0.81;74.29;95528.09;5095785;28;1902;-60
2023/03/18 01:09:13;;;;;;;;;;;;;;;0.59;74.16;95520.66;5095550;28;1124;-60
2023/03/18 01:11:39;;;;;;;;;;;;;;;0.67;73.79;95520.22;5095463;28;1123;-60
2023/03/18 01:14:05;;;;;;;;;;;;;;;0.54;74.03;95525.34;5095588;28;1073;-60
2023/03/18 01:16:31;;;;;;;;;;;;;;;0.33;74.38;95530.09;5095698;28;1035;-60
2023/03/18 01:18:57;;;;;;;;;;;;;;;0.41;74.56;95532.28;5095827;28;953;-60
2023/03/18 01:21:23;;;;;;;;;;;;;;;0.23;74.72;95528.91;5095385;28;1056;-60
2023/03/18 01:23:49;;;;;;;;;;;;;;;0.00;75.82;95531.13;5095654;28;964;-60
2023/03/18 01:26:15;;;;;;;;;;;;;;;0.12;76.11;95530.41;5093878;28;1981;-60
2023/03/18 01:28:41;;;;;;;;;;;;;;;-0.08;76.69;95531.53;5095607;28;1051;-60
2023/03/18 01:31:08;;;;;;;;;;;;;;;-0.13;77.16;95524.84;5094395;28;1039;-60
2023/03/18 01:33:35;;;;;;;;;;;;;;;0.08;76.88;95521.00;5095282;28;1003;-59
2023/03/18 01:36:02;;;;;;;;;;;;;;;0.13;75.87;95526.84;5110221;28;1307;-60
2023/03/18 01:38:29;;;;;;;;;;;;;;;-0.04;76.04;95524.31;5115542;28;995;-59
2023/03/18 01:40:55;;;;;;;;;;;;;;;-0.16;76.33;95519.78;5115304;28;985;-60
2023/03/18 01:43:25;;;;;;;;;;;;;;;-0.17;76.52;95504.91;5115621;28;988;-60
2023/03/18 01:45:52;;;;;;;;;;;;;;;-0.29;76.95;95511.72;5115274;28;1901;-60
2023/03/18 01:48:20;;;;;;;;;;;;;;;-0.14;77.16;95515.28;5115523;28;1030;-60
2023/03/18 01:50:51;;;;;;;;;;;;;;;0.06;76.40;95508.84;5115451;28;929;-60
2023/03/18 01:53:18;;;;;;;;;;;;;;;0.02;75.90;95515.22;5115232;28;957;-60
2023/03/18 01:55:46;;;;;;;;;;;;;;;-0.13;76.22;95514.31;5114079;28;1050;-60
2023/03/18 01:58:16;;;;;;;;;;;;;;;-0.25;76.64;95516.75;5114979;28;1048;-60
2023/03/18 02:00:45;;;;;;;;;;;;;;;-0.33;76.86;95507.56;5115229;28;1034;-60
2023/03/18 02:03:11;;;;;;;;;;;;;;;-0.20;77.11;95505.94;5115249;28;1008;-60
2023/03/18 02:05:39;;;;;;;;;;;;;;;0.00;76.51;95515.34;5115268;28;1044;-60
2023/03/18 02:08:05;;;;;;;;;;;;;;;0.12;76.39;95508.53;5115026;28;1999;-60
2023/03/18 02:10:31;;;;;;;;;;;;;;;-0.01;75.58;95503.13;5112914;28;1001;-60
2023/03/18 02:12:59;;;;;;;;;;;;;;;-0.11;76.10;95496.72;5115054;28;1000;-60
2023/03/18 02:15:26;;;;;;;;;;;;;;;-0.12;76.00;95490.56;5114948;28;1049;-60
2023/03/18 02:17:56;;;;;;;;;;;;;;;-0.20;75.65;95493.66;5114998;28;1044;-59
2023/03/18 02:20:26;;;;;;;;;;;;;;;-0.29;75.35;95494.16;5114902;28;1046;-60
2023/03/18 02:23:02;;;;;;;;;;;;;;;-0.61;76.42;95482.84;5114550;28;1016;-60
2023/03/18 02:25:46;;;;;;;;;;;;;;;-0.71;77.12;95482.50;5114444;28;1131;-60
2023/03/18 02:28:15;;;;;;;;;;;;;;;-0.77;77.80;95490.72;5114303;28;1909;-60
2023/03/18 02:30:45;;;;;;;;;;;;;;;-0.64;77.88;95481.25;5114473;28;1068;-60
2023/03/18 02:33:13;;;;;;;;;;;;;;;-0.58;77.17;95484.47;5114896;28;1048;-60
2023/03/18 02:35:39;;;;;;;;;;;;;;;-0.72;77.83;95475.56;5102628;28;1302;-59
2023/03/18 02:38:05;;;;;;;;;;;;;;;-0.60;78.54;95480.13;5093865;28;1287;-60
2023/03/18 02:40:33;;;;;;;;;;;;;;;-0.37;76.84;95479.78;5094035;28;1027;-60
2023/03/18 02:43:18;;;;;;;;;;;;;;;-0.29;76.80;95478.41;5094251;28;1013;-60
2023/03/18 02:45:56;;;;;;;;;;;;;;;-0.22;77.11;95474.50;5093926;28;952;-60
2023/03/18 02:48:26;;;;;;;;;;;;;;;-0.16;76.76;95480.34;5093694;28;1033;-60
2023/03/18 02:50:53;;;;;;;;;;;;;;;-0.13;75.99;95482.78;5093849;28;1037;-60
2023/03/18 02:53:19;;;;;;;;;;;;;;;-0.32;76.00;95480.34;5093791;28;1015;-60
2023/03/18 02:55:45;;;;;;;;;;;;;;;-0.24;76.77;95486.88;5093685;28;1159;-60
2023/03/18 02:58:11;;;;;;;;;;;;;;;-0.35;75.68;95484.00;5094075;28;1043;-60
2023/03/18 03:00:37;;;;;;;;;;;;;;;-0.70;76.01;95483.34;5093902;28;1181;-60
2023/03/18 03:03:04;;;;;;;;;;;;;;;-0.96;76.78;95479.53;5092394;28;1036;-60
2023/03/18 03:05:32;;;;;;;;;;;;;;;-0.94;77.35;95486.38;5093670;28;1015;-60
2023/03/18 03:07:58;;;;;;;;;;;;;;;-0.91;77.18;95483.63;5093755;28;1914;-60
2023/03/18 03:10:25;;;;;;;;;;;;;;;-1.14;77.70;95482.19;5093428;28;987;-60
2023/03/18 03:12:51;;;;;;;;;;;;;;;-1.25;78.36;95481.91;5093474;28;1000;-60
2023/03/18 03:15:18;;;;;;;;;;;;;;;-1.23;78.74;95478.31;5093312;28;1024;-60
2023/03/18 03:17:44;;;;;;;;;;;;;;;-1.18;78.71;95483.28;5093697;28;1016;-60
2023/03/18 03:20:10;;;;;;;;;;;;;;;-1.21;78.71;95486.09;5093264;28;1061;-60
2023/03/18 03:22:36;;;;;;;;;;;;;;;-1.23;78.77;95487.97;5093124;28;1077;-59
2023/03/18 03:25:03;;;;;;;;;;;;;;;-1.08;78.78;95479.28;5092112;28;1036;-60
2023/03/18 03:27:29;;;;;;;;;;;;;;;-0.84;78.41;95492.81;5093390;28;1918;-60
2023/03/18 03:29:55;;;;;;;;;;;;;;;-0.67;77.65;95491.06;5093470;28;1282;-60
2023/03/18 03:32:21;;;;;;;;;;;;;;;-0.80;77.02;95494.38;5093399;28;1040;-60
2023/03/18 03:34:48;;;;;;;;;;;;;;;-1.05;77.53;95500.09;5098109;28;1268;-60
2023/03/18 03:37:14;;;;;;;;;;;;;;;-0.96;77.67;95493.50;5112225;28;1275;-60
2023/03/18 03:39:40;;;;;;;;;;;;;;;-0.85;78.13;95487.69;5113549;28;944;-60
2023/03/18 03:42:06;;;;;;;;;;;;;;;-0.83;77.14;95497.16;5113474;28;917;-60
2023/03/18 03:44:32;;;;;;;;;;;;;;;-1.09;76.71;95497.72;5113340;28;1044;-60
2023/03/18 03:46:58;;;;;;;;;;;;;;;-1.38;77.51;95494.88;5113927;28;1993;-60
2023/03/18 03:49:24;;;;;;;;;;;;;;;-1.54;79.02;95493.97;5113533;28;1039;-60
2023/03/18 03:51:50;;;;;;;;;;;;;;;-1.47;79.35;95498.81;5113597;28;937;-60
2023/03/18 03:54:16;;;;;;;;;;;;;;;-1.14;79.01;95490.06;5113190;28;1044;-60
2023/03/18 03:56:42;;;;;;;;;;;;;;;-0.93;78.03;95490.72;5113647;28;985;-60
2023/03/18 03:59:09;;;;;;;;;;;;;;;-0.85;77.79;95487.69;5113255;28;1000;-59
2023/03/18 04:01:35;;;;;;;;;;;;;;;-1.00;77.28;95487.56;5113887;28;1026;-59
2023/03/18 04:04:01;;;;;;;;;;;;;;;-1.11;77.79;95495.16;5112121;28;1056;-60
2023/03/18 04:06:28;;;;;;;;;;;;;;;-1.36;78.18;95486.91;5113260;28;1914;-60
2023/03/18 04:08:54;;;;;;;;;;;;;;;-1.48;78.64;95491.00;5113539;28;1012;-60
2023/03/18 04:11:20;;;;;;;;;;;;;;;-1.60;78.81;95487.25;5113177;28;1123;-60
2023/03/18 04:13:47;;;;;;;;;;;;;;;-1.55;79.45;95487.88;5111937;28;1033;-60
2023/03/18 04:16:13;;;;;;;;;;;;;;;-1.32;78.86;95491.06;5113343;28;1034;-59
2023/03/18 04:18:39;;;;;;;;;;;;;;;-1.33;78.38;95490.19;5112235;28;1030;-59
2023/03/18 04:21:06;;;;;;;;;;;;;;;-1.41;78.91;95489.75;5113449;28;1123;-60
2023/03/18 04:23:33;;;;;;;;;;;;;;;-1.28;78.63;95492.59;5113306;28;1120;-60
2023/03/18 04:25:59;;;;;;;;;;;;;;;-1.14;77.93;95499.72;5113228;28;1992;-60
2023/03/18 04:28:25;;;;;;;;;;;;;;;-1.19;77.61;95502.63;5112887;28;1076;-60
2023/03/18 04:30:51;;;;;;;;;;;;;;;-1.11;77.99;95494.34;5113372;28;1047;-60
2023/03/18 04:33:18;;;;;;;;;;;;;;;-1.29;77.76;95496.13;5112920;28;929;-59
2023/03/18 04:35:44;;;;;;;;;;;;;;;-1.33;78.78;95494.59;5102896;28;1335;-59
2023/03/18 04:38:10;;;;;;;;;;;;;;;-1.39;78.82;95501.03;5094874;28;1107;-59
2023/03/18 04:40:37;;;;;;;;;;;;;;;-1.25;78.59;95497.66;5096119;28;1088;-60
2023/03/18 04:43:03;;;;;;;;;;;;;;;-1.11;78.55;95499.59;5096105;28;1036;-60
2023/03/18 04:45:29;;;;;;;;;;;;;;;-1.07;77.80;95496.69;5096263;28;1032;-60
2023/03/18 04:47:55;;;;;;;;;;;;;;;-1.10;78.12;95512.63;5096173;28;1906;-59
2023/03/18 04:50:21;;;;;;;;;;;;;;;-0.99;78.08;95505.03;5096217;28;1112;-60
2023/03/18 04:52:47;;;;;;;;;;;;;;;-1.06;77.37;95498.41;5095991;28;1080;-60
2023/03/18 04:55:15;;;;;;;;;;;;;;;-1.01;77.07;95506.03;5094606;28;1016;-60
2023/03/18 04:57:42;;;;;;;;;;;;;;;-0.97;76.90;95512.78;5096376;28;964;-60
2023/03/18 05:00:10;;;;;;;;;;;;;;;-1.15;76.68;95504.13;5096006;28;1123;-60
2023/03/18 05:02:37;;;;;;;;;;;;;;;-1.28;76.99;95510.97;5096038;28;953;-60
2023/03/18 05:05:03;;;;;;;;;;;;;;;-1.21;77.00;95513.19;5095906;28;1004;-60
2023/03/18 05:07:29;;;;;;;;;;;;;;;-0.90;77.26;95519.41;5095571;28;1909;-60
2023/03/18 05:09:55;;;;;;;;;;;;;;;-0.53;75.43;95522.69;5095537;28;1061;-60
2023/03/18 05:12:24;;;;;;;;;;;;;;;-0.35;74.25;95523.41;5095469;28;960;-60
2023/03/18 05:14:51;;;;;;;;;;;;;;;-0.30;74.49;95526.66;5095572;28;1040;-60
2023/03/18 05:17:20;;;;;;;;;;;;;;;-0.35;75.07;95522.59;5095362;28;1036;-60
2023/03/18 05:19:48;;;;;;;;;;;;;;;-0.29;75.64;95524.84;5094402;28;1043;-60
2023/03/18 05:22:18;;;;;;;;;;;;;;;0.01;75.13;95534.59;5095434;28;1035;-60
2023/03/18 05:24:47;;;;;;;;;;;;;;;0.22;74.71;95533.34;5095258;28;996;-60
2023/03/18 05:27:17;;;;;;;;;;;;;;;0.45;73.94;95532.00;5095453;28;1910;-60
2023/03/18 05:29:45;;;;;;;;;;;;;;;0.61;73.50;95541.59;5095550;28;1028;-60
2023/03/18 05:32:13;;;;;;;;;;;;;;;1.02;73.20;95540.91;5095450;28;964;-60
2023/03/18 05:34:42;;;;;;;;;;;;;;;1.49;71.45;95545.88;5098919;28;1252;-60
2023/03/18 05:37:11;;;;;;;;;;;;;;;1.83;70.58;95553.44;5115474;28;1095;-61
2023/03/18 05:39:39;;;;;;;;;;;;;;;2.00;70.62;95544.44;5115582;28;1051;-61
2023/03/18 05:42:07;;;;;;;;;;;;;;;2.10;70.06;95543.72;5114579;28;1038;-61
2023/03/18 05:44:36;;;;;;;;;;;;;;;2.34;70.32;95553.66;5115317;28;1049;-61
2023/03/18 05:47:04;;;;;;;;;;;;;;;2.47;70.08;95554.53;5115188;28;1979;-61
2023/03/18 05:49:33;;;;;;;;;;;;;;;2.72;69.43;95555.53;5115150;28;1123;-61
2023/03/18 05:52:02;;;;;;;;;;;;;;;2.76;69.65;95557.00;5115442;28;953;-61
2023/03/18 05:54:28;;;;;;;;;;;;;;;3.00;69.63;95556.28;5114926;28;1282;-61
2023/03/18 05:56:56;;;;;;;;;;;;;;;3.32;68.46;95565.50;5114248;28;1035;-61
2023/03/18 05:59:24;;;;;;;;;;;;;;;3.78;66.78;95565.84;5115126;28;1035;-61
2023/03/18 06:01:53;;;;;;;;;;;;;;;4.30;65.20;95567.34;5115144;28;1024;-61
2023/03/18 06:04:21;;;;;;;;;;;;;;;4.99;61.95;95571.94;5115111;28;1048;-61
2023/03/18 06:06:50;;;;;;;;;;;;;;;6.45;57.58;95579.09;5115281;28;1979;-61
2023/03/18 06:09:18;;;;;;;;;;;;;;;7.61;53.11;95584.41;5114967;28;1039;-61
2023/03/18 06:11:46;;;;;;;;;;;;;;;7.80;51.94;95582.81;5115065;28;956;-61
2023/03/18 06:14:14;;;;;;;;;;;;;;;7.51;52.80;95580.84;5114963;28;1141;-61
2023/03/18 06:16:42;;;;;;;;;;;;;;;7.26;54.28;95568.78;5114695;28;1035;-61
2023/03/18 06:19:10;;;;;;;;;;;;;;;6.70;54.70;95582.38;5114550;28;1028;-61
2023/03/18 06:21:39;;;;;;;;;;;;;;;6.58;55.20;95571.81;5114760;27;1027;-59
2023/03/18 06:24:07;;;;;;;;;;;;;;;6.65;55.92;95577.44;5114687;28;1022;-60
2023/03/18 06:26:35;;;;;;;;;;;;;;;6.62;57.60;95565.25;5114721;28;1913;-56
2023/03/18 06:29:04;;;;;;;;;;;;;;;6.63;55.99;95571.41;5114641;28;1042;-55
2023/03/18 06:31:33;;;;;;;;;;;;;;;6.66;55.18;95568.50;5113262;28;1099;-59
2023/03/18 06:34:01;;;;;;;;;;;;;;;6.66;55.20;95587.09;5113239;28;1043;-59
2023/03/18 06:36:30;;;;;;;;;;;;;;;6.68;55.42;95563.91;5093869;28;1641;-59
2023/03/18 06:38:58;;;;;;;;;;;;;;;7.04;55.08;95562.63;5094060;28;968;-63
2023/03/18 06:41:27;;;;;;;;;;;;;;;7.64;54.40;95562.00;5093828;28;1033;-63
2023/03/18 06:43:55;;;;;;;;;;;;;;;7.84;54.02;95559.44;5093882;28;1025;-62
2023/03/18 06:46:24;;;;;;;;;;;;;;;8.38;52.17;95564.34;5093514;28;1988;-62
2023/03/18 06:48:53;;;;;;;;;;;;;;;9.08;50.14;95558.09;5093718;28;1056;-62
2023/03/18 06:51:21;;;;;;;;;;;;;;;9.58;47.85;95560.53;5093935;28;1031;-62
2023/03/18 06:53:50;;;;;;;;;;;;;;;9.56;49.15;95558.00;5093720;28;973;-61
2023/03/18 06:56:18;;;;;;;;;;;;;;;9.06;51.15;95554.72;5093568;28;968;-62
2023/03/18 06:58:46;;;;;;;;;;;;;;;8.72;50.88;95547.16;5093395;28;1107;-61
2023/03/18 07:01:14;;;;;;;;;;;;;;;8.97;51.00;95548.41;5093442;28;1076;-61
2023/03/18 07:03:42;;;;;;;;;;;;;;;9.17;51.03;95547.41;5093402;28;1037;-61
2023/03/18 07:06:11;;;;;;;;;;;;;;;9.08;51.10;95548.25;5093088;28;2016;-59
2023/03/18 07:08:39;;;;;;;;;;;;;;;8.95;51.71;95542.38;5093709;28;1067;-61
2023/03/18 07:11:07;;;;;;;;;;;;;;;9.23;51.61;95546.00;5093434;28;1025;-62
2023/03/18 07:13:35;;;;;;;;;;;;;;;9.28;51.17;95546.41;5093378;28;1558;-62
2023/03/18 07:16:03;;;;;;;;;;;;;;;9.53;50.96;95552.94;5093285;28;1033;-61
2023/03/18 07:18:31;;;;;;;;;;;;;;;9.47;50.65;95550.03;5092439;28;992;-58
2023/03/18 07:21:00;;;;;;;;;;;;;;;9.72;50.06;95553.88;5093333;28;1112;-59
2023/03/18 07:23:28;;;;;;;;;;;;;;;10.09;49.26;95559.22;5093130;28;1573;-59
2023/03/18 07:25:57;;;;;;;;;;;;;;;10.21;48.49;95561.69;5093796;28;1020;-58
2023/03/18 07:28:24;;;;;;;;;;;;;;;10.45;48.80;95555.78;5093309;28;1906;-59
2023/03/18 07:30:51;;;;;;;;;;;;;;;10.04;48.19;95555.31;5093122;28;1073;-59
2023/03/18 07:33:17;;;;;;;;;;;;;;;10.61;46.85;95549.81;5093192;28;1053;-59
2023/03/18 07:35:43;;;;;;;;;;;;;;;10.68;47.16;95550.84;5105594;28;1550;-61
2023/03/18 07:38:10;;;;;;;;;;;;;;;10.55;47.34;95548.56;5113367;28;1094;-61
2023/03/18 07:40:37;;;;;;;;;;;;;;;10.65;47.82;95543.97;5113506;28;989;-61
2023/03/18 07:43:03;;;;;;;;;;;;;;;10.80;47.08;95536.28;5113448;28;1037;-62
2023/03/18 07:45:30;;;;;;;;;;;;;;;11.29;46.29;95535.84;5112532;28;1046;-59
2023/03/18 07:47:56;;;;;;;;;;;;;;;11.50;45.05;95541.69;5113615;28;1905;-62
2023/03/18 07:50:22;;;;;;;;;;;;;;;11.21;45.12;95538.44;5113446;28;1012;-61
2023/03/18 07:52:48;;;;;;;;;;;;;;;11.95;45.12;95533.59;5112208;28;1020;-62
2023/03/18 07:55:14;;;;;;;;;;;;;;;11.96;44.59;95546.81;5112129;28;1033;-62
2023/03/18 07:57:41;;;;;;;;;;;;;;;12.14;44.56;95549.44;5113676;28;1003;-62
2023/03/18 08:00:10;;;;;;;;;;;;;;;12.48;43.27;95540.50;5113562;28;969;-61
2023/03/18 08:02:36;;;;;;;;;;;;;;;12.26;42.62;95548.13;5113486;28;1059;-60
2023/03/18 08:05:05;;;;;;;;;;;;;;;12.03;43.74;95541.69;5112067;28;1077;-58
2023/03/18 08:07:32;;;;;;;;;;;;;;;12.65;43.18;95544.91;5113031;28;1909;-57
2023/03/18 08:09:58;;;;;;;;;;;;;;;13.04;41.40;95543.44;5115708;28;1042;-61
2023/03/18 08:12:24;;;;;;;;;;;;;;;12.83;41.62;95550.13;5116740;28;972;-59
2023/03/18 08:14:51;;;;;;;;;;;;;;;12.38;42.13;95542.47;5117108;28;960;-60
2023/03/18 08:17:17;;;;;;;;;;;;;;;12.85;42.91;95533.88;5117290;28;1015;-61
2023/03/18 08:19:43;;;;;;;;;;;;;;;12.52;42.33;95541.88;5117168;27;1022;-61
2023/03/18 08:22:10;;;;;;;;;;;;;;;12.65;43.72;95534.19;5117202;28;1036;-61
2023/03/18 08:24:37;;;;;;;;;;;;;;;13.20;42.91;95532.72;5115539;28;1146;-61
2023/03/18 08:27:03;;;;;;;;;;;;;;;13.49;39.98;95539.44;5117133;28;1921;-61
2023/03/18 08:29:30;;;;;;;;;;;;;;;13.62;41.11;95541.59;5116928;28;1027;-61
2023/03/18 08:31:56;;;;;;;;;;;;;;;13.63;40.49;95544.13;5117272;27;1023;-61
2023/03/18 08:34:22;;;;;;;;;;;;;;;13.66;39.99;95537.59;5115411;28;1279;-60
2023/03/18 08:36:48;;;;;;;;;;;;;;;13.47;38.78;95547.69;5096040;28;1080;-61
2023/03/18 08:39:15;;;;;;;;;;;;;;;13.83;39.56;95546.47;5096521;28;1019;-60
2023/03/18 08:41:41;;;;;;;;;;;;;;;14.22;39.77;95540.28;5096282;28;1041;-62
2023/03/18 08:44:09;;;;;;;;;;;;;;;13.77;39.46;95533.69;5096427;28;1016;-59
2023/03/18 08:46:36;;;;;;;;;;;;;;;13.89;40.42;95540.38;5096280;28;1929;-61
2023/03/18 08:49:02;;;;;;;;;;;;;;;14.14;38.96;95545.69;5095224;28;953;-62
2023/03/18 08:51:28;;;;;;;;;;;;;;;14.92;37.01;95555.56;5095931;28;980;-62
2023/03/18 08:53:54;;;;;;;;;;;;;;;14.37;35.90;95549.28;5096348;28;976;-64
2023/03/18 08:56:21;;;;;;;;;;;;;;;13.96;37.77;95545.91;5096241;28;965;-63
2023/03/18 08:58:47;;;;;;;;;;;;;;;14.48;37.22;95545.38;5095999;28;1037;-61
2023/03/18 09:01:13;;;;;;;;;;;;;;;14.93;36.07;95541.13;5095804;28;1076;-61
2023/03/18 09:03:39;;;;;;;;;;;;;;;14.69;36.89;95549.34;5096201;28;937;-61
2023/03/18 09:06:06;;;;;;;;;;;;;;;14.53;35.21;95551.06;5096066;28;1024;-62
2023/03/18 09:08:32;;;;;;;;;;;;;;;14.38;34.99;95550.97;5096015;28;1980;-62
2023/03/18 09:10:58;;;;;;;;;;;;;;;14.70;33.83;95564.44;5095591;28;1009;-62
2023/03/18 09:13:25;;;;;;;;;;;;;;;15.10;34.92;95551.75;5095734;28;1011;-61
2023/03/18 09:15:51;;;;;;;;;;;;;;;15.39;34.38;95551.88;5095598;28;1056;-62
2023/03/18 09:18:17;;;;;;;;;;;;;;;15.29;33.62;95555.81;5095520;28;1040;-62
2023/03/18 09:20:44;;;;;;;;;;;;;;;15.22;33.80;95553.84;5093945;28;1151;-62
2023/03/18 09:23:11;;;;;;;;;;;;;;;15.37;35.25;95547.69;5095338;28;1084;-62
2023/03/18 09:25:41;;;;;;;;;;;;;;;15.61;33.92;95552.00;5095709;28;1060;-62
2023/03/18 09:28:07;;;;;;;;;;;;;;;15.59;35.44;95538.75;5095353;28;1917;-62
2023/03/18 09:30:33;;;;;;;;;;;;;;;15.87;32.36;95550.78;5095584;28;1263;-62
2023/03/18 09:33:00;;;;;;;;;;;;;;;15.39;33.81;95542.97;5095302;28;1040;-61
2023/03/18 09:35:29;;;;;;;;;;;;;;;15.39;33.85;95542.97;5105323;28;1625;-62
2023/03/18 09:37:56;;;;;;;;;;;;;;;15.62;33.75;95545.59;5115452;28;1345;-63
2023/03/18 09:40:22;;;;;;;;;;;;;;;15.95;33.70;95545.31;5115539;28;1012;-63
2023/03/18 09:42:50;;;;;;;;;;;;;;;15.58;33.19;95542.44;5115805;28;1076;-63
2023/03/18 09:45:23;;;;;;;;;;;;;;;15.66;33.91;95538.00;5115704;28;1026;-62
2023/03/18 09:47:55;;;;;;;;;;;;;;;16.22;33.84;95534.91;5115439;28;1901;-64
2023/03/18 09:50:40;;;;;;;;;;;;;;;16.07;31.78;95535.75;5115161;28;1027;-61
2023/03/18 09:53:09;;;;;;;;;;;;;;;16.09;32.97;95541.78;5115286;28;1076;-61
2023/03/18 09:55:46;;;;;;;;;;;;;;;14.95;34.99;95527.44;5115330;28;1253;-62
2023/03/18 09:58:18;;;;;;;;;;;;;;;14.82;34.82;95536.97;5113981;28;896;-62
2023/03/18 10:00:45;;;;;;;;;;;;;;;14.18;35.72;95531.72;5115428;28;1145;-62
2023/03/18 10:03:15;;;;;;;;;;;;;;;13.75;35.65;95533.84;5115224;28;1281;-62
2023/03/18 10:05:47;;;;;;;;;;;;;;;12.84;34.91;95529.50;5113721;28;1033;-62
2023/03/18 10:08:36;;;;;;;;;;;;;;;12.35;36.63;95521.34;5114951;28;1983;-62
2023/03/18 10:11:05;;;;;;;;;;;;;;;12.36;37.22;95517.66;5104518;28;1326;-63
2023/03/18 10:13:37;;;;;;;;;;;;;;;12.17;37.42;95519.59;5115074;28;969;-61
2023/03/18 10:16:06;;;;;;;;;;;;;;;12.33;38.11;95509.94;5115000;28;995;-61
2023/03/18 10:18:34;;;;;;;;;;;;;;;13.48;36.07;95518.97;5114573;28;1015;-61
2023/03/18 10:21:14;;;;;;;;;;;;;;;13.86;35.60;95519.22;5114970;28;1023;-62
2023/03/18 10:23:48;;;;;;;;;;;;;;;14.28;34.44;95523.44;5114581;28;1035;-57
2023/03/18 10:26:18;;;;;;;;;;;;;;;14.30;33.65;95521.41;5114560;28;1906;-61
2023/03/18 10:28:44;;;;;;;;;;;;;;;13.98;32.34;95527.75;5114535;28;1044;-61
2023/03/18 10:31:32;;;;;;;;;;;;;;;14.11;33.46;95529.88;5114100;28;976;-63
2023/03/18 10:34:00;;;;;;;;;;;;;;;14.89;31.95;95520.94;5114760;27;1023;-61
2023/03/18 10:36:42;;;;;;;;;;;;;;;15.58;32.75;95522.75;5095755;28;1342;-61
2023/03/18 10:39:19;;;;;;;;;;;;;;;14.58;32.96;95513.72;5114340;28;1557;-60
2023/03/18 10:41:50;;;;;;;;;;;;;;;13.26;33.42;95510.56;5114246;27;1616;-57
2023/03/18 10:44:16;;;;;;;;;;;;;;;12.91;34.45;95506.38;5114606;28;1589;-58
2023/03/18 10:46:42;;;;;;;;;;;;;;;12.24;33.35;95511.78;5113954;28;1996;-58
2023/03/18 10:49:13;;;;;;;;;;;;;;;12.10;34.01;95502.50;5114009;28;1040;-58
2023/03/18 10:51:42;;;;;;;;;;;;;;;11.94;35.23;95505.13;5114002;28;1343;-58
2023/03/18 10:54:12;;;;;;;;;;;;;;;12.83;34.98;95492.94;5109452;28;1949;-55
2023/03/18 10:56:38;;;;;;;;;;;;;;;13.89;34.41;95491.13;5103361;28;1537;-58
2023/03/18 10:59:10;;;;;;;;;;;;;;;13.74;35.21;95485.66;5114109;27;964;-58
2023/03/18 11:01:37;;;;;;;;;;;;;;;13.33;34.50;95489.25;5099271;28;1075;-58
2023/03/18 11:04:05;;;;;;;;;;;;;;;13.10;35.59;95478.34;5093737;28;1037;-58
2023/03/18 11:06:35;;;;;;;;;;;;;;;13.27;36.29;95479.19;5093411;28;1910;-58
2023/03/18 11:09:07;;;;;;;;;;;;;;;12.77;35.50;95477.53;5093696;28;1041;-56
2023/03/18 11:11:33;;;;;;;;;;;;;;;12.85;35.59;95480.19;5106677;28;1467;-58
2023/03/18 11:14:01;;;;;;;;;;;;;;;12.92;34.12;95483.03;5113853;28;1877;-58
2023/03/18 11:16:30;;;;;;;;;;;;;;;12.85;34.63;95490.94;5113681;28;1045;-58
2023/03/18 11:18:58;;;;;;;;;;;;;;;12.74;34.63;95478.69;5112389;28;1565;-58
2023/03/18 11:21:25;;;;;;;;;;;;;;;13.01;35.22;95482.03;5112731;28;932;-58
2023/03/18 11:24:06;;;;;;;;;;;;;;;13.34;33.33;95482.91;5114055;28;996;-58
2023/03/18 11:26:44;;;;;;;;;;;;;;;13.39;33.54;95479.69;5113522;28;1910;-58
2023/03/18 11:29:13;;;;;;;;;;;;;;;13.75;32.38;95479.28;5113632;28;1080;-58
2023/03/18 11:31:50;;;;;;;;;;;;;;;14.16;31.87;95485.34;5113651;28;1041;-58
2023/03/18 11:34:18;;;;;;;;;;;;;;;14.48;32.31;95483.50;5113695;28;1357;-58
2023/03/18 11:36:52;;;;;;;;;;;;;;;14.44;31.85;95472.25;5112344;28;1234;-57
2023/03/18 11:39:18;;;;;;;;;;;;;;;14.34;31.92;95476.16;5112570;28;1051;-58
2023/03/18 11:41:46;;;;;;;;;;;;;;;13.95;33.20;95474.34;5113949;28;997;-58
2023/03/18 11:44:17;;;;;;;;;;;;;;;13.26;33.55;95475.66;5115771;28;1000;-58
2023/03/18 11:46:46;;;;;;;;;;;;;;;12.77;34.18;95472.16;5117917;27;1913;-58
2023/03/18 11:49:14;;;;;;;;;;;;;;;12.35;34.23;95481.13;5116467;28;1036;-58
2023/03/18 11:51:49;;;;;;;;;;;;;;;12.16;34.66;95468.84;5117795;28;1096;-58
2023/03/18 11:54:21;;;;;;;;;;;;;;;12.35;34.43;95459.66;5117581;28;1092;-57
2023/03/18 11:57:03;;;;;;;;;;;;;;;12.88;33.91;95463.75;5117868;28;965;-57
2023/03/18 11:59:29;;;;;;;;;;;;;;;13.53;33.19;95470.13;5116662;28;1055;-58
2023/03/18 12:01:56;;;;;;;;;;;;;;;13.68;32.10;95471.06;5118049;28;1050;-58
2023/03/18 12:04:22;;;;;;;;;;;;;;;13.43;31.31;95473.81;5117558;28;979;-58
2023/03/18 12:06:51;;;;;;;;;;;;;;;13.29;32.14;95474.47;5117377;28;1984;-58
2023/03/18 12:09:35;;;;;;;;;;;;;;;13.53;32.56;95475.47;5117362;28;1060;-58
2023/03/18 12:12:11;;;;;;;;;;;;;;;13.21;32.72;95471.81;5117452;28;1046;-58
2023/03/18 12:14:43;;;;;;;;;;;;;;;13.07;33.21;95471.47;5117240;28;1016;-58
2023/03/18 12:17:15;;;;;;;;;;;;;;;12.90;33.38;95472.50;5117604;28;1134;-58
2023/03/18 12:19:47;;;;;;;;;;;;;;;12.68;34.12;95463.25;5117148;28;1044;-58
2023/03/18 12:22:14;;;;;;;;;;;;;;;12.58;34.33;95470.63;5117164;28;1022;-58
2023/03/18 12:24:58;;;;;;;;;;;;;;;12.63;33.93;95470.94;5117195;28;1038;-57
2023/03/18 12:27:24;;;;;;;;;;;;;;;12.29;33.65;95475.44;5117051;28;2004;-57
2023/03/18 12:29:56;;;;;;;;;;;;;;;12.06;32.67;95480.53;5117187;28;1043;-57
2023/03/18 12:32:24;;;;;;;;;;;;;;;11.76;33.59;95487.28;5117001;28;972;-57
2023/03/18 12:35:02;;;;;;;;;;;;;;;11.51;33.88;95486.28;5116755;28;1310;-56
2023/03/18 12:37:30;;;;;;;;;;;;;;;11.41;34.40;95478.34;5116580;28;1079;-57
2023/03/18 12:40:00;;;;;;;;;;;;;;;11.58;34.25;95475.78;5117163;28;1031;-58
2023/03/18 12:42:41;;;;;;;;;;;;;;;11.58;34.46;95481.97;5116969;28;969;-57
2023/03/18 12:45:09;;;;;;;;;;;;;;;11.85;33.96;95475.56;5116699;27;1045;-58
2023/03/18 12:48:04;;;;;;;;;;;;;;;11.72;33.27;95485.88;5116433;28;2042;-57
2023/03/18 12:50:37;;;;;;;;;;;;;;;11.90;33.99;95475.97;5111413;28;1257;-57
2023/03/18 12:53:16;;;;;;;;;;;;;;;12.37;33.98;95473.75;5116841;28;1055;-57
2023/03/18 12:55:48;;;;;;;;;;;;;;;12.36;33.13;95475.59;5115794;28;1021;-57
2023/03/18 12:58:16;;;;;;;;;;;;;;;12.43;32.62;95479.31;5115413;28;973;-57
2023/03/18 13:00:55;;;;;;;;;;;;;;;12.07;31.84;95476.03;5115480;28;1016;-57
2023/03/18 13:03:25;;;;;;;;;;;;;;;12.07;32.40;95474.19;5116183;28;1040;-57
2023/03/18 13:06:02;;;;;;;;;;;;;;;12.00;32.86;95483.88;5116253;28;1088;-56
2023/03/18 13:08:47;;;;;;;;;;;;;;;11.88;32.37;95475.25;5116436;28;1913;-57